Scarboro, Georgia
Current Conditions -  °F | °C
As of 8:55 AM on Wednesday 28 Jan 2015 (Local Time) from KJYL Reporting Station
Clear Clear  
Wind Chill: 31°   Ceiling: Unl
Heat Index: 36°   Visibility: 10mi
Dew Point: 31°   Wind: 6mph
Humidity: 81%   Direction: 360°N
Pressure: 30.27"   Gusts: NA
Location:  32.7727°N, 81.9794°W
Report Text: KJYL 281355Z AUTO 36005KT 10SM CLR 02/M01 A3027 RMK AO2 T00221007
Loading
Personal Weather Stations






























Interactive Weather Map New forecast layout! Learn more

10-Day Weather Forecast

Advertisements
Track Severe Weather on mobile